Chimacum, Washington
Current Conditions -  °F | °C
As of 12:53 AM on Sunday 21 Dec 2014 (Local Time) from KPAE Reporting Station
Overcast Overcast  
Wind Chill: 53°   Ceiling: 2000
Heat Index: 53°   Visibility: 10mi
Dew Point: 48°   Wind: 3mph
Humidity: 83%   Direction: 350°N
Pressure: 29.61"   Gusts: NA
Location:  48.01°N, 122.77°W
Report Text: KPAE 210853Z AUTO 35003KT 10SM FEW011 OVC020 12/09 A2961 RMK AO2 SLP026 T01170089 53058
Loading
Personal Weather Stations






























Interactive Weather Map New forecast layout! Learn more

10-Day Weather Forecast

Advertisements
Track Severe Weather on mobile